»·PEaware :: N148WT KSNA-KBUR

N148WT :: KSNA-KBUR

FLIGHT INFORMATION

Flight Status: Arrived
Operator: Privately registered:
United States
More flights under this callsign
Pilot: Vlad D. (11271)
Aircraft: Unknown
(B60T)
More flights by this aircraft type
Origin: KSNA John Wayne-Orange Co
United States
Destination: KBUR Bob Hope-Burbank
United States
More flights between these airports :: More routes between these airports
Route: SLI V23 LAX LAX316R SILEX
File this flight plan on PilotEdge
Remarks: I-3 Rating
Altitude:
(Current/Filed)
6,000ft
Speed:
(Current/Filed)
180kts
Departed: 23-May-16 08:06 AM
Arrived: 23-May-16 08:37 AM
Distance/Time
Traveled:
40nm/0:31
Distance/Time
To Go:
Arrived

Flight Plot

Page will automatically refresh every two minutes.


Map Options




Map Legend


Flown Route
Filed Route
Departure Airport
Arrival Airport
Navaid (VOR, NDB)
Fix

Horizontal Profiles

Position Reports

Time Latitude Longitude Heading Altitude Ground
Speed
23-May-16 07:42 33.674983 -117.871503 219 59ft 0kts
23-May-16 07:43 33.674983 -117.871503 219 59ft 0kts
23-May-16 07:44 33.674983 -117.871503 219 59ft 0kts
23-May-16 07:45 33.674983 -117.871503 219 59ft 0kts
23-May-16 07:46 33.674983 -117.871503 219 59ft 0kts
23-May-16 07:47 33.674983 -117.871503 219 59ft 0kts
23-May-16 07:48 33.674981 -117.871505 219 59ft 0kts
23-May-16 07:49 33.674979 -117.871508 219 59ft 0kts
23-May-16 07:50 33.674977 -117.871510 219 59ft 0kts
23-May-16 07:51 33.674975 -117.871512 219 59ft 0kts
23-May-16 07:52 33.674972 -117.871514 219 59ft 0kts
23-May-16 07:53 33.674970 -117.871516 219 59ft 0kts
23-May-16 07:54 33.674968 -117.871518 219 59ft 0kts
23-May-16 07:55 33.674966 -117.871520 219 59ft 0kts
23-May-16 07:56 33.674964 -117.871522 219 59ft 0kts
23-May-16 07:57 33.674962 -117.871524 219 59ft 0kts
23-May-16 07:58 33.674960 -117.871526 219 59ft 0kts
23-May-16 07:59 33.674829 -117.870938 35 59ft 5kts
23-May-16 08:00 33.676804 -117.869718 27 59ft 7kts
23-May-16 08:01 33.678615 -117.868600 27 59ft 7kts
23-May-16 08:02 33.680424 -117.867482 26 59ft 7kts
23-May-16 08:03 33.680812 -117.866396 116 59ft 4kts
23-May-16 08:04 33.676717 -117.868109 208 59ft 108kts
23-May-16 08:05 33.642095 -117.881932 190 1535ft 130kts
23-May-16 08:06 33.606859 -117.888126 188 3441ft 130kts
23-May-16 08:07 33.569089 -117.894820 187 5455ft 146kts
23-May-16 08:08 33.530551 -117.919767 259 6006ft 198kts
23-May-16 08:09 33.566526 -117.967457 331 6002ft 213kts
23-May-16 08:10 33.612366 -118.010001 302 6004ft 212kts
23-May-16 08:11 33.648937 -118.065845 308 5999ft 212kts
23-May-16 08:12 33.686019 -118.120331 308 5998ft 207kts
23-May-16 08:13 33.722522 -118.173915 308 6001ft 206kts
23-May-16 08:14 33.760632 -118.225610 312 6002ft 204kts
23-May-16 08:15 33.799334 -118.274871 312 6007ft 202kts
23-May-16 08:16 33.839828 -118.321813 311 6006ft 201kts
23-May-16 08:17 33.879067 -118.369147 313 6006ft 197kts
23-May-16 08:18 33.918558 -118.414988 316 5999ft 196kts
23-May-16 08:19 33.961353 -118.455575 336 6002ft 196kts
23-May-16 08:20 34.008069 -118.486138 329 5997ft 196kts
23-May-16 08:21 34.056481 -118.515108 331 6000ft 197kts
23-May-16 08:22 34.104652 -118.546552 329 5998ft 194kts
23-May-16 08:23 34.151786 -118.578104 329 5998ft 192kts
23-May-16 08:24 34.197508 -118.606332 352 5908ft 177kts
23-May-16 08:25 34.237749 -118.589829 328 4599ft 164kts
23-May-16 08:26 34.252084 -118.642623 272 3325ft 176kts
23-May-16 08:27 34.219983 -118.658018 132 3011ft 169kts
23-May-16 08:28 34.199659 -118.610100 90 3007ft 161kts
23-May-16 08:29 34.200677 -118.555482 93 3055ft 170kts
23-May-16 08:30 34.199997 -118.511589 93 3010ft 117kts
23-May-16 08:31 34.199273 -118.469377 92 2366ft 123kts
23-May-16 08:32 34.198847 -118.429508 91 1719ft 111kts
23-May-16 08:33 34.198310 -118.394876 93 1200ft 98kts
23-May-16 08:34 34.197837 -118.363085 92 724ft 65kts
23-May-16 08:35 34.197226 -118.360307 178 724ft 0kts
23-May-16 08:36 34.196856 -118.360169 112 724ft 4kts
23-May-16 08:37 34.196112 -118.359094 252 724ft 6kts
23-May-16 08:38 34.195873 -118.359341 179 724ft 0kts
23-May-16 08:39 34.195870 -118.359341 179 724ft 0kts

Navigation Log

Ident Type
Flight plan parsing failed, navigation log unavailable